createdAt,value
2022-11-26T00:00:44.760Z,6.42
2022-11-26T00:01:44.836Z,6.45
2022-11-26T00:02:44.905Z,6.46
2022-11-26T00:03:44.804Z,6.44
2022-11-26T00:04:44.828Z,6.45
2022-11-26T00:05:44.711Z,6.42
2022-11-26T00:06:44.725Z,6.51
2022-11-26T00:07:44.757Z,6.41
2022-11-26T00:08:44.793Z,6.46
2022-11-26T00:09:44.653Z,6.41
2022-11-26T00:10:44.672Z,6.48
2022-11-26T00:11:44.627Z,6.51
2022-11-26T00:12:44.617Z,6.48
2022-11-26T00:13:44.650Z,6.46
2022-11-26T00:14:44.652Z,6.48
2022-11-26T00:15:44.585Z,6.49
2022-11-26T00:16:44.696Z,6.48
2022-11-26T00:17:44.601Z,6.59
2022-11-26T00:18:44.557Z,6.49
2022-11-26T00:19:44.555Z,6.48
2022-11-26T00:20:44.621Z,6.46
2022-11-26T00:21:44.525Z,6.51
2022-11-26T00:22:44.501Z,6.44
2022-11-26T00:23:44.500Z,6.39
2022-11-26T00:24:44.480Z,6.54
2022-11-26T00:25:44.474Z,6.42
2022-11-26T00:26:44.506Z,6.48
2022-11-26T00:27:44.449Z,6.48
2022-11-26T00:28:44.465Z,6.45
2022-11-26T00:29:44.425Z,6.49
2022-11-26T00:30:44.417Z,6.46
2022-11-26T00:31:44.448Z,6.49
2022-11-26T00:32:44.425Z,6.44
2022-11-26T00:33:44.415Z,6.42
2022-11-26T00:34:44.387Z,6.41
2022-11-26T00:35:44.358Z,6.42
2022-11-26T00:36:44.348Z,6.36
2022-11-26T00:37:44.353Z,6.38
2022-11-26T00:38:44.353Z,6.35
2022-11-26T00:39:44.321Z,6.39
2022-11-26T00:40:44.297Z,6.35
2022-11-26T00:41:44.293Z,6.33
2022-11-26T00:42:44.304Z,6.35
2022-11-26T00:43:44.265Z,6.41
2022-11-26T00:44:44.303Z,6.33
2022-11-26T00:45:44.300Z,6.35
2022-11-26T00:46:44.249Z,6.35
2022-11-26T00:47:44.227Z,6.31
2022-11-26T00:48:44.368Z,6.39
2022-11-26T00:49:44.224Z,6.31
2022-11-26T00:50:44.225Z,6.26
2022-11-26T00:51:44.211Z,6.30
2022-11-26T00:52:44.171Z,6.28
2022-11-26T00:53:44.296Z,6.31
2022-11-26T00:54:44.149Z,6.24
2022-11-26T00:55:44.130Z,6.22
2022-11-26T00:56:44.157Z,6.28
2022-11-26T00:57:44.170Z,6.39
2022-11-26T00:58:44.108Z,6.28
2022-11-26T00:59:44.088Z,6.28
2022-11-26T01:00:44.139Z,6.36
2022-11-26T01:01:44.073Z,6.39
2022-11-26T01:02:44.164Z,6.36
2022-11-26T01:03:44.053Z,6.38
2022-11-26T01:04:44.030Z,6.30
2022-11-26T01:05:44.051Z,6.33
2022-11-26T01:06:44.018Z,6.36
2022-11-26T01:07:44.093Z,6.39
2022-11-26T01:08:44.053Z,6.39
2022-11-26T01:09:43.969Z,6.42
2022-11-26T01:10:43.976Z,6.39
2022-11-26T01:11:43.946Z,6.38
2022-11-26T01:12:43.939Z,6.46
2022-11-26T01:13:43.923Z,6.42
2022-11-26T01:14:43.960Z,6.48
2022-11-26T01:15:43.906Z,6.42
2022-11-26T01:16:43.927Z,6.51
2022-11-26T01:17:43.880Z,6.46
2022-11-26T01:18:43.868Z,6.42
2022-11-26T01:19:43.867Z,6.46
2022-11-26T01:20:43.882Z,6.48
2022-11-26T01:21:43.869Z,6.49
2022-11-26T01:22:43.830Z,6.41
2022-11-26T01:23:43.815Z,6.48
2022-11-26T01:24:43.805Z,6.45
2022-11-26T01:25:43.810Z,6.45
2022-11-26T01:26:43.801Z,6.46
2022-11-26T01:27:43.781Z,6.48
2022-11-26T01:28:43.760Z,6.39
2022-11-26T01:29:43.799Z,6.41
2022-11-26T01:30:43.739Z,6.41
2022-11-26T01:31:43.782Z,6.36
2022-11-26T01:32:43.740Z,6.41
2022-11-26T01:33:43.718Z,6.39
2022-11-26T01:34:43.680Z,6.36
2022-11-26T01:35:43.680Z,6.46
2022-11-26T01:36:43.662Z,6.38
2022-11-26T01:37:43.697Z,6.28
2022-11-26T01:38:43.705Z,6.44
2022-11-26T01:39:43.625Z,6.39
2022-11-26T01:40:43.620Z,6.30
2022-11-26T01:41:43.604Z,6.33
2022-11-26T01:42:43.594Z,6.30
2022-11-26T01:43:43.585Z,6.39
2022-11-26T01:44:43.592Z,6.31
2022-11-26T01:45:43.646Z,6.31
2022-11-26T01:46:43.553Z,6.41
2022-11-26T01:47:43.530Z,6.33
2022-11-26T01:48:43.529Z,6.33
2022-11-26T01:49:43.512Z,6.33
2022-11-26T01:50:43.579Z,6.39
2022-11-26T01:51:43.489Z,6.38
2022-11-26T01:52:43.479Z,6.36
2022-11-26T01:53:43.513Z,6.39
2022-11-26T01:54:43.455Z,6.27
2022-11-26T01:55:43.447Z,6.36
2022-11-26T01:56:43.468Z,6.27
2022-11-26T01:57:43.421Z,6.24
2022-11-26T01:58:43.407Z,6.24
2022-11-26T01:59:43.420Z,6.20
2022-11-26T02:00:43.494Z,6.28
2022-11-26T02:01:43.440Z,6.20
2022-11-26T02:02:43.581Z,6.20
2022-11-26T02:03:43.351Z,6.30
2022-11-26T02:04:43.341Z,6.24
2022-11-26T02:05:43.328Z,6.19
2022-11-26T02:06:43.317Z,6.17
2022-11-26T02:07:43.353Z,6.22
2022-11-26T02:08:43.337Z,6.19
2022-11-26T02:09:43.312Z,6.20
2022-11-26T02:10:43.274Z,6.19
2022-11-26T02:11:43.298Z,6.17
2022-11-26T02:12:43.274Z,6.17
2022-11-26T02:13:43.262Z,6.19
2022-11-26T02:14:43.259Z,6.20
2022-11-26T02:15:43.240Z,6.17
2022-11-26T02:16:43.267Z,6.24
2022-11-26T02:17:43.206Z,6.20
2022-11-26T02:18:43.218Z,6.09
2022-11-26T02:19:43.167Z,6.20
2022-11-26T02:20:43.193Z,6.22
2022-11-26T02:21:43.146Z,6.22
2022-11-26T02:22:43.157Z,6.19
2022-11-26T02:23:43.135Z,6.22
2022-11-26T02:24:43.119Z,6.19
2022-11-26T02:25:43.129Z,6.22
2022-11-26T02:26:43.174Z,6.20
2022-11-26T02:27:43.077Z,6.24
2022-11-26T02:28:43.074Z,6.20
2022-11-26T02:29:43.057Z,6.26
2022-11-26T02:30:43.050Z,6.20
2022-11-26T02:31:43.117Z,6.20
2022-11-26T02:32:43.051Z,6.30
2022-11-26T02:33:43.018Z,6.17
2022-11-26T02:34:43.406Z,6.31
2022-11-26T02:35:42.999Z,6.20
2022-11-26T02:36:42.975Z,6.26
2022-11-26T02:37:42.964Z,6.36
2022-11-26T02:38:43.027Z,6.39
2022-11-26T02:39:42.940Z,6.36
2022-11-26T02:40:42.966Z,6.38
2022-11-26T02:41:42.939Z,6.27
2022-11-26T02:42:42.912Z,6.38
2022-11-26T02:43:42.905Z,6.36
2022-11-26T02:44:42.975Z,6.42
2022-11-26T02:45:42.906Z,6.35
2022-11-26T02:46:42.883Z,6.30
2022-11-26T02:47:42.856Z,6.30
2022-11-26T02:48:42.935Z,6.36
2022-11-26T02:49:42.842Z,6.42
2022-11-26T02:50:42.841Z,6.33
2022-11-26T02:51:42.815Z,6.35
2022-11-26T02:52:42.827Z,6.30
2022-11-26T02:53:42.785Z,6.38
2022-11-26T02:54:42.839Z,6.39
2022-11-26T02:55:42.765Z,6.35
2022-11-26T02:56:42.810Z,6.46
2022-11-26T02:57:42.804Z,6.41
2022-11-26T02:58:42.739Z,6.45
2022-11-26T02:59:42.715Z,6.42
2022-11-26T03:00:42.850Z,6.41
2022-11-26T03:01:42.690Z,6.42
2022-11-26T03:02:42.697Z,6.44
2022-11-26T03:03:42.837Z,6.44
2022-11-26T03:04:42.680Z,6.46
2022-11-26T03:05:42.654Z,6.44
2022-11-26T03:06:42.634Z,6.44
2022-11-26T03:07:42.789Z,6.39
2022-11-26T03:08:42.642Z,6.46
2022-11-26T03:09:42.636Z,6.48
2022-11-26T03:10:42.591Z,6.39
2022-11-26T03:11:42.626Z,6.42
2022-11-26T03:12:42.576Z,6.52
2022-11-26T03:13:42.579Z,6.45
2022-11-26T03:14:42.563Z,6.54
2022-11-26T03:15:42.658Z,6.59
2022-11-26T03:16:42.653Z,6.57
2022-11-26T03:17:42.543Z,6.51
2022-11-26T03:18:42.500Z,6.52
2022-11-26T03:19:42.489Z,6.56
2022-11-26T03:20:42.491Z,6.52
2022-11-26T03:21:42.467Z,6.60
2022-11-26T03:22:42.489Z,6.56
2022-11-26T03:23:42.442Z,6.62
2022-11-26T03:24:42.437Z,6.62
2022-11-26T03:25:42.416Z,6.64
2022-11-26T03:26:42.428Z,6.52
2022-11-26T03:27:42.399Z,6.59
2022-11-26T03:28:42.384Z,6.57
2022-11-26T03:29:42.411Z,6.69
2022-11-26T03:30:42.361Z,6.64
2022-11-26T03:31:42.424Z,6.63
2022-11-26T03:32:42.370Z,6.67
2022-11-26T03:33:42.321Z,6.70
2022-11-26T03:34:42.321Z,6.67
2022-11-26T03:35:42.303Z,6.66
2022-11-26T03:36:42.299Z,6.59
2022-11-26T03:37:42.304Z,6.64
2022-11-26T03:38:42.307Z,6.63
2022-11-26T03:39:42.256Z,6.70
2022-11-26T03:40:42.250Z,6.52
2022-11-26T03:41:42.232Z,6.60
2022-11-26T03:42:42.246Z,6.64
2022-11-26T03:43:42.215Z,6.54
2022-11-26T03:44:42.255Z,6.54
2022-11-26T03:45:42.323Z,6.59
2022-11-26T03:46:42.176Z,6.60
2022-11-26T03:47:42.168Z,6.56
2022-11-26T03:48:42.168Z,6.63
2022-11-26T03:49:42.147Z,6.60
2022-11-26T03:50:42.172Z,6.63
2022-11-26T03:51:42.126Z,6.60
2022-11-26T03:52:42.112Z,6.62
2022-11-26T03:53:42.126Z,6.59
2022-11-26T03:54:42.089Z,6.56
2022-11-26T03:55:42.082Z,6.56
2022-11-26T03:56:42.134Z,6.59
2022-11-26T03:57:42.055Z,6.51
2022-11-26T03:58:42.057Z,6.44
2022-11-26T03:59:42.028Z,6.46
2022-11-26T04:00:42.023Z,6.45
2022-11-26T04:01:42.093Z,6.52
2022-11-26T04:02:42.048Z,6.46
2022-11-26T04:03:41.989Z,6.46
2022-11-26T04:04:41.994Z,6.45
2022-11-26T04:05:41.960Z,6.45
2022-11-26T04:06:41.953Z,6.46
2022-11-26T04:07:41.993Z,6.44
2022-11-26T04:08:41.964Z,6.39
2022-11-26T04:09:41.922Z,6.44
2022-11-26T04:10:41.919Z,6.39
2022-11-26T04:11:41.899Z,6.39
2022-11-26T04:12:41.942Z,6.42
2022-11-26T04:13:41.875Z,6.42
2022-11-26T04:14:42.150Z,6.42
2022-11-26T04:15:41.847Z,6.45
2022-11-26T04:16:41.870Z,6.42
2022-11-26T04:17:41.854Z,6.39
2022-11-26T04:18:41.854Z,6.41
2022-11-26T04:19:41.811Z,6.46
2022-11-26T04:20:41.902Z,6.51
2022-11-26T04:21:41.781Z,6.42
2022-11-26T04:22:41.779Z,6.45
2022-11-26T04:23:41.755Z,6.56
2022-11-26T04:24:41.775Z,6.45
2022-11-26T04:25:41.731Z,6.46
2022-11-26T04:26:41.837Z,6.49
2022-11-26T04:27:41.713Z,6.46
2022-11-26T04:28:41.700Z,6.49
2022-11-26T04:29:41.695Z,6.49
2022-11-26T04:30:41.685Z,6.52
2022-11-26T04:31:41.711Z,6.49
2022-11-26T04:32:41.673Z,6.54
2022-11-26T04:33:41.670Z,6.48
2022-11-26T04:34:41.716Z,6.44
2022-11-26T04:35:41.629Z,6.48
2022-11-26T04:36:41.616Z,6.46
2022-11-26T04:37:41.600Z,6.48
2022-11-26T04:38:41.656Z,6.44
2022-11-26T04:39:41.601Z,6.57
2022-11-26T04:40:41.569Z,6.45
2022-11-26T04:41:41.619Z,6.48
2022-11-26T04:42:41.544Z,6.49
2022-11-26T04:43:41.549Z,6.41
2022-11-26T04:44:41.536Z,6.45
2022-11-26T04:45:41.573Z,6.45
2022-11-26T04:46:41.501Z,6.44
2022-11-26T04:47:43.041Z,6.46
2022-11-26T04:48:41.468Z,6.45
2022-11-26T04:49:41.491Z,6.39
2022-11-26T04:50:41.513Z,6.46
2022-11-26T04:51:41.439Z,6.46
2022-11-26T04:52:41.428Z,6.41
2022-11-26T04:53:41.412Z,6.49
2022-11-26T04:54:41.403Z,6.41
2022-11-26T04:55:41.394Z,6.42
2022-11-26T04:56:41.423Z,6.41
2022-11-26T04:57:41.466Z,6.44
2022-11-26T04:58:41.359Z,6.45
2022-11-26T04:59:41.350Z,6.42
2022-11-26T05:00:41.413Z,6.44
2022-11-26T05:01:41.437Z,6.39
2022-11-26T05:02:41.368Z,6.39
2022-11-26T05:03:41.300Z,6.42
2022-11-26T05:04:41.335Z,6.39
2022-11-26T05:05:41.306Z,6.49
2022-11-26T05:06:41.287Z,6.42
2022-11-26T05:07:41.371Z,6.42
2022-11-26T05:08:41.288Z,6.41
2022-11-26T05:09:41.235Z,6.38
2022-11-26T05:10:41.249Z,6.42
2022-11-26T05:11:41.228Z,6.39
2022-11-26T05:12:41.220Z,6.38
2022-11-26T05:13:41.254Z,6.42
2022-11-26T05:14:41.212Z,6.41
2022-11-26T05:15:41.163Z,6.48
2022-11-26T05:16:41.209Z,6.44
2022-11-26T05:17:41.139Z,6.41
2022-11-26T05:18:41.134Z,6.42
2022-11-26T05:19:41.113Z,6.44
2022-11-26T05:20:41.144Z,6.46
2022-11-26T05:21:41.119Z,6.41
2022-11-26T05:22:41.118Z,6.48
2022-11-26T05:23:41.073Z,6.48
2022-11-26T05:24:41.284Z,6.46
2022-11-26T05:25:41.047Z,6.44
2022-11-26T05:26:41.077Z,6.49
2022-11-26T05:27:41.030Z,6.41
2022-11-26T05:28:41.036Z,6.42
2022-11-26T05:29:41.004Z,6.42
2022-11-26T05:30:41.007Z,6.42
2022-11-26T05:31:41.060Z,6.44
2022-11-26T05:32:40.990Z,6.48
2022-11-26T05:33:40.955Z,6.45
2022-11-26T05:34:41.214Z,6.46
2022-11-26T05:35:41.029Z,6.44
2022-11-26T05:36:40.928Z,6.46
2022-11-26T05:37:40.941Z,6.45
2022-11-26T05:38:40.931Z,6.48
2022-11-26T05:39:40.900Z,6.51
2022-11-26T05:40:40.874Z,6.48
2022-11-26T05:41:40.873Z,6.36
2022-11-26T05:42:40.935Z,6.44
2022-11-26T05:43:40.840Z,6.49
2022-11-26T05:44:41.225Z,6.52
2022-11-26T05:45:40.873Z,6.48
2022-11-26T05:46:40.815Z,6.45
2022-11-26T05:47:40.802Z,6.38
2022-11-26T05:48:40.834Z,6.45
2022-11-26T05:49:40.779Z,6.45
2022-11-26T05:50:40.802Z,6.42
2022-11-26T05:51:40.751Z,6.41
2022-11-26T05:52:40.742Z,6.41
2022-11-26T05:53:40.760Z,6.44
2022-11-26T05:54:40.947Z,6.46
2022-11-26T05:55:40.703Z,6.44
2022-11-26T05:56:40.778Z,6.45
2022-11-26T05:57:40.680Z,6.49
2022-11-26T05:58:40.701Z,6.48
2022-11-26T05:59:40.661Z,6.45
2022-11-26T06:00:40.720Z,6.42
2022-11-26T06:01:40.640Z,6.46
2022-11-26T06:02:40.813Z,6.45
2022-11-26T06:03:40.695Z,6.42
2022-11-26T06:04:40.971Z,6.41
2022-11-26T06:05:40.596Z,6.42
2022-11-26T06:06:40.584Z,6.46
2022-11-26T06:07:44.511Z,6.44
2022-11-26T06:08:40.594Z,6.44
2022-11-26T06:09:41.053Z,6.45
2022-11-26T06:10:40.538Z,6.48
2022-11-26T06:11:40.523Z,6.48
2022-11-26T06:12:40.509Z,6.42
2022-11-26T06:13:40.502Z,6.46
2022-11-26T06:14:43.372Z,6.41
2022-11-26T06:15:40.496Z,6.44
2022-11-26T06:16:40.508Z,6.42
2022-11-26T06:17:40.450Z,6.41
2022-11-26T06:18:40.444Z,6.44
2022-11-26T06:19:40.441Z,6.42
2022-11-26T06:20:40.451Z,6.46
2022-11-26T06:21:40.425Z,6.45
2022-11-26T06:22:40.402Z,6.44
2022-11-26T06:23:45.463Z,6.42
2022-11-26T06:24:41.397Z,6.44
2022-11-26T06:25:40.396Z,6.42
2022-11-26T06:26:40.397Z,6.44
2022-11-26T06:27:40.373Z,6.41
2022-11-26T06:28:40.338Z,6.46
2022-11-26T06:29:40.325Z,6.46
2022-11-26T06:30:40.304Z,6.48
2022-11-26T06:31:40.384Z,6.41
2022-11-26T06:32:40.320Z,6.54
2022-11-26T06:33:40.278Z,6.46
2022-11-26T06:34:43.782Z,6.54
2022-11-26T06:35:40.247Z,6.57
2022-11-26T06:36:40.242Z,6.51
2022-11-26T06:37:40.225Z,6.51
2022-11-26T06:38:40.242Z,6.57
2022-11-26T06:39:40.223Z,6.59
2022-11-26T06:40:40.195Z,6.51
2022-11-26T06:41:40.209Z,6.54
2022-11-26T06:42:40.206Z,6.52
2022-11-26T06:43:40.161Z,6.51
2022-11-26T06:44:40.590Z,6.64
2022-11-26T06:45:40.230Z,6.64
2022-11-26T06:46:40.196Z,6.52
2022-11-26T06:47:40.113Z,6.64
2022-11-26T06:48:40.128Z,6.72
2022-11-26T06:49:40.090Z,6.64
2022-11-26T06:50:40.236Z,6.75
2022-11-26T06:51:40.065Z,6.67
2022-11-26T06:52:40.144Z,6.74
2022-11-26T06:53:40.051Z,6.66
2022-11-26T06:54:40.572Z,6.78
2022-11-26T06:55:40.042Z,6.67
2022-11-26T06:56:40.066Z,6.75
2022-11-26T06:57:40.022Z,6.72
2022-11-26T06:58:40.077Z,6.70
2022-11-26T06:59:39.975Z,6.79
2022-11-26T07:00:40.038Z,6.82
2022-11-26T07:01:40.012Z,6.79
2022-11-26T07:02:40.028Z,6.84
2022-11-26T07:03:39.936Z,6.89
2022-11-26T07:04:40.274Z,6.82
2022-11-26T07:05:39.914Z,6.87
2022-11-26T07:06:39.912Z,6.88
2022-11-26T07:07:40.099Z,6.84
2022-11-26T07:08:39.939Z,6.93
2022-11-26T07:09:39.859Z,6.95
2022-11-26T07:10:41.213Z,6.93
2022-11-26T07:11:39.843Z,6.95
2022-11-26T07:12:39.849Z,6.99
2022-11-26T07:13:39.839Z,6.93
2022-11-26T07:14:40.157Z,6.93
2022-11-26T07:15:39.882Z,7.06
2022-11-26T07:16:39.861Z,7.00
2022-11-26T07:17:39.771Z,6.99
2022-11-26T07:18:39.780Z,7.03
2022-11-26T07:19:39.754Z,7.03
2022-11-26T07:20:39.811Z,6.99
2022-11-26T07:21:39.729Z,7.00
2022-11-26T07:22:39.722Z,7.06
2022-11-26T07:23:39.700Z,7.14
2022-11-26T07:24:40.021Z,7.11
2022-11-26T07:25:39.703Z,7.14
2022-11-26T07:26:39.709Z,7.13
2022-11-26T07:27:39.662Z,7.11
2022-11-26T07:28:39.647Z,7.17
2022-11-26T07:29:39.664Z,7.14
2022-11-26T07:30:39.710Z,7.14
2022-11-26T07:31:39.673Z,7.21
2022-11-26T07:32:39.636Z,7.23
2022-11-26T07:33:39.586Z,7.25
2022-11-26T07:34:39.714Z,7.28
2022-11-26T07:35:39.564Z,7.32
2022-11-26T07:36:39.555Z,7.28
2022-11-26T07:37:39.549Z,7.38
2022-11-26T07:38:39.606Z,7.39
2022-11-26T07:39:39.524Z,7.38
2022-11-26T07:40:39.531Z,7.45
2022-11-26T07:41:39.496Z,7.51
2022-11-26T07:42:39.550Z,7.51
2022-11-26T07:43:39.477Z,7.51
2022-11-26T07:44:39.843Z,7.50
2022-11-26T07:45:39.483Z,7.56
2022-11-26T07:46:39.521Z,7.58
2022-11-26T07:47:39.431Z,7.57
2022-11-26T07:48:39.422Z,7.54
2022-11-26T07:49:39.407Z,7.67
2022-11-26T07:50:39.474Z,7.70
2022-11-26T07:51:39.397Z,7.66
2022-11-26T07:52:39.412Z,7.70
2022-11-26T07:53:39.376Z,7.72
2022-11-26T07:54:39.695Z,7.75
2022-11-26T07:55:39.343Z,7.75
2022-11-26T07:56:39.354Z,7.82
2022-11-26T07:57:39.330Z,7.77
2022-11-26T07:58:39.311Z,7.83
2022-11-26T07:59:39.296Z,7.90
2022-11-26T08:00:39.319Z,7.87
2022-11-26T08:01:39.493Z,7.88
2022-11-26T08:02:39.439Z,7.88
2022-11-26T08:03:39.254Z,7.94
2022-11-26T08:04:39.472Z,7.90
2022-11-26T08:05:39.230Z,7.97
2022-11-26T08:06:39.230Z,7.93
2022-11-26T08:07:39.267Z,7.91
2022-11-26T08:08:39.352Z,7.94
2022-11-26T08:09:39.182Z,7.88
2022-11-26T08:10:39.176Z,7.82
2022-11-26T08:11:39.167Z,7.83
2022-11-26T08:12:39.152Z,7.82
2022-11-26T08:13:39.136Z,7.93
2022-11-26T08:14:39.415Z,7.93
2022-11-26T08:15:39.115Z,7.83
2022-11-26T08:16:39.230Z,7.87
2022-11-26T08:17:39.179Z,7.93
2022-11-26T08:18:39.087Z,7.90
2022-11-26T08:19:39.068Z,7.91
2022-11-26T08:20:39.077Z,7.90
2022-11-26T08:21:39.061Z,8.00
2022-11-26T08:22:39.037Z,8.05
2022-11-26T08:23:39.033Z,8.01
2022-11-26T08:24:39.413Z,8.06
2022-11-26T08:25:59.270Z,7.94
2022-11-26T08:26:44.168Z,7.97
2022-11-26T08:27:38.989Z,7.97
2022-11-26T08:28:38.975Z,8.06
2022-11-26T08:29:38.984Z,7.97
2022-11-26T08:30:38.948Z,8.09
2022-11-26T08:31:44.898Z,8.13
2022-11-26T08:32:39.953Z,8.10
2022-11-26T08:33:38.938Z,8.12
2022-11-26T08:34:39.245Z,8.20
2022-11-26T08:36:05.547Z,8.19
2022-11-26T08:36:39.880Z,8.24
2022-11-26T08:37:38.869Z,8.19
2022-11-26T08:38:38.989Z,8.34
2022-11-26T08:39:38.845Z,8.36
2022-11-26T08:40:38.852Z,8.41
2022-11-26T08:41:38.821Z,8.36
2022-11-26T08:42:38.823Z,8.45
2022-11-26T08:44:40.324Z,8.53
2022-11-26T08:45:38.770Z,8.56
2022-11-26T08:46:38.867Z,8.66
2022-11-26T08:47:38.759Z,8.64
2022-11-26T08:48:38.796Z,8.66
2022-11-26T08:49:38.754Z,8.70
2022-11-26T08:50:38.754Z,8.69
2022-11-26T08:51:38.731Z,8.76
2022-11-26T08:52:38.726Z,8.76
2022-11-26T08:53:38.707Z,8.89
2022-11-26T08:54:43.463Z,8.89
2022-11-26T08:55:59.299Z,8.87
2022-11-26T08:56:39.654Z,8.89
2022-11-26T08:57:38.649Z,8.88
2022-11-26T08:58:38.631Z,8.91
2022-11-26T08:59:38.644Z,8.89
2022-11-26T09:00:38.610Z,8.94
2022-11-26T09:01:38.741Z,8.94
2022-11-26T09:02:38.652Z,9.00
2022-11-26T09:03:38.598Z,8.97
2022-11-26T09:04:38.753Z,9.00
2022-11-26T09:05:38.651Z,9.04
2022-11-26T09:06:38.533Z,9.03
2022-11-26T09:07:38.640Z,9.03
2022-11-26T09:08:38.528Z,9.13
2022-11-26T09:09:38.507Z,9.02
2022-11-26T09:10:38.502Z,9.14
2022-11-26T09:11:38.481Z,9.11
2022-11-26T09:12:38.467Z,9.16
2022-11-26T09:13:38.476Z,9.11
2022-11-26T09:14:38.723Z,9.21
2022-11-26T09:15:38.442Z,9.23
2022-11-26T09:16:38.506Z,9.23
2022-11-26T09:17:38.413Z,9.16
2022-11-26T09:18:38.408Z,9.23
2022-11-26T09:19:38.435Z,9.22
2022-11-26T09:20:38.381Z,9.26
2022-11-26T09:21:38.406Z,9.28
2022-11-26T09:22:38.358Z,9.21
2022-11-26T09:23:38.352Z,9.29
2022-11-26T09:24:38.649Z,9.34
2022-11-26T09:25:38.451Z,9.40
2022-11-26T09:26:38.319Z,9.37
2022-11-26T09:27:38.307Z,9.37
2022-11-26T09:28:38.306Z,9.43
2022-11-26T09:29:38.288Z,9.51
2022-11-26T09:30:38.269Z,9.50
2022-11-26T09:31:55.021Z,9.54
2022-11-26T09:32:39.304Z,9.51
2022-11-26T09:33:38.233Z,9.54
2022-11-26T09:34:38.837Z,9.61
2022-11-26T09:35:38.232Z,9.64
2022-11-26T09:36:38.205Z,9.68
2022-11-26T09:37:38.349Z,9.72
2022-11-26T09:38:38.179Z,9.66
2022-11-26T09:39:38.168Z,9.66
2022-11-26T09:40:38.151Z,9.69
2022-11-26T09:41:38.144Z,9.64
2022-11-26T09:42:38.136Z,9.72
2022-11-26T09:43:38.169Z,9.74
2022-11-26T09:44:38.527Z,9.68
2022-11-26T09:45:38.208Z,9.72
2022-11-26T09:46:50.993Z,9.83
2022-11-26T09:47:39.075Z,9.83
2022-11-26T09:48:38.064Z,9.80
2022-11-26T09:49:38.072Z,9.86
2022-11-26T09:50:38.067Z,9.77
2022-11-26T09:51:38.034Z,9.86
2022-11-26T09:52:38.011Z,9.84
2022-11-26T09:53:38.033Z,9.80
2022-11-26T09:54:38.385Z,9.84
2022-11-26T09:55:38.017Z,9.92
2022-11-26T09:56:37.975Z,9.95
2022-11-26T09:57:37.961Z,9.94
2022-11-26T09:58:37.954Z,9.97
2022-11-26T09:59:37.950Z,9.92
2022-11-26T10:00:37.935Z,9.94
2022-11-26T10:01:38.023Z,9.89
2022-11-26T10:02:38.061Z,9.86
2022-11-26T10:03:37.909Z,9.97
2022-11-26T10:04:38.418Z,9.99
2022-11-26T10:05:37.867Z,10.05
2022-11-26T10:06:37.860Z,9.98
2022-11-26T10:07:37.935Z,10.01
2022-11-26T10:08:37.833Z,10.01
2022-11-26T10:09:37.937Z,10.10
2022-11-26T10:10:37.810Z,10.17
2022-11-26T10:11:37.810Z,10.23
2022-11-26T10:12:56.260Z,10.25
2022-11-26T10:13:38.807Z,10.19
2022-11-26T10:14:38.056Z,10.22
2022-11-26T10:15:37.779Z,10.34
2022-11-26T10:16:37.799Z,10.31
2022-11-26T10:17:37.737Z,10.31
2022-11-26T10:18:37.727Z,10.53
2022-11-26T10:19:37.745Z,10.42
2022-11-26T10:20:37.703Z,10.48
2022-11-26T10:21:58.083Z,10.54
2022-11-26T10:22:38.693Z,10.74
2022-11-26T10:23:37.692Z,10.74
2022-11-26T10:24:37.993Z,10.89
2022-11-26T10:25:37.704Z,10.82
2022-11-26T10:26:37.637Z,10.79
2022-11-26T10:27:37.619Z,10.90
2022-11-26T10:28:37.611Z,10.81
2022-11-26T10:29:37.599Z,10.79
2022-11-26T10:30:37.637Z,10.89
2022-11-26T10:31:37.732Z,10.82
2022-11-26T10:32:37.587Z,10.84
2022-11-26T10:33:37.552Z,10.82
2022-11-26T10:34:39.216Z,10.89
2022-11-26T10:35:37.533Z,10.90
2022-11-26T10:36:37.517Z,10.86
2022-11-26T10:37:37.544Z,10.94
2022-11-26T10:38:37.516Z,11.02
2022-11-26T10:39:37.481Z,11.00
2022-11-26T10:40:37.520Z,11.04
2022-11-26T10:41:37.480Z,11.04
2022-11-26T10:42:37.447Z,10.99
2022-11-26T10:43:37.541Z,11.00
2022-11-26T10:44:37.721Z,11.04
2022-11-26T10:45:37.468Z,11.04
2022-11-26T10:46:37.425Z,10.94
2022-11-26T10:47:37.392Z,10.96
2022-11-26T10:48:37.380Z,10.89
2022-11-26T10:49:37.473Z,10.97
2022-11-26T10:50:47.613Z,10.94
2022-11-26T10:51:38.378Z,10.86
2022-11-26T10:52:37.338Z,10.92
2022-11-26T10:53:37.355Z,10.96
2022-11-26T10:54:37.721Z,10.96
2022-11-26T10:55:37.405Z,10.94
2022-11-26T10:56:37.289Z,10.84
2022-11-26T10:57:37.310Z,10.92
2022-11-26T10:58:37.263Z,10.81
2022-11-26T10:59:37.853Z,10.79
2022-11-26T11:00:37.297Z,10.86
2022-11-26T11:01:37.311Z,10.86
2022-11-26T11:02:37.292Z,10.86
2022-11-26T11:04:38.202Z,10.86
2022-11-26T11:05:37.178Z,10.75
2022-11-26T11:06:37.177Z,10.82
2022-11-26T11:07:37.239Z,10.76
2022-11-26T11:08:37.150Z,10.78
2022-11-26T11:09:37.145Z,10.75
2022-11-26T11:10:37.157Z,10.79
2022-11-26T11:11:37.147Z,10.76
2022-11-26T11:12:37.104Z,10.74
2022-11-26T11:13:37.199Z,10.74
2022-11-26T11:14:42.250Z,10.71
2022-11-26T11:15:38.071Z,10.69
2022-11-26T11:16:37.203Z,10.67
2022-11-26T11:17:37.061Z,10.71
2022-11-26T11:18:37.038Z,10.61
2022-11-26T11:19:37.092Z,10.69
2022-11-26T11:20:37.039Z,10.72
2022-11-26T11:21:36.996Z,10.75
2022-11-26T11:22:37.062Z,10.75
2022-11-26T11:24:06.459Z,10.84
2022-11-26T11:24:38.060Z,10.79
2022-11-26T11:25:36.956Z,10.84
2022-11-26T11:26:36.944Z,10.82
2022-11-26T11:27:36.929Z,10.79
2022-11-26T11:28:36.925Z,10.75
2022-11-26T11:29:36.941Z,10.76
2022-11-26T11:30:36.934Z,10.74
2022-11-26T11:31:37.009Z,10.76
2022-11-26T11:32:36.876Z,10.69
2022-11-26T11:33:36.863Z,10.75
2022-11-26T11:34:37.180Z,10.74
2022-11-26T11:35:36.866Z,10.76
2022-11-26T11:36:36.905Z,10.71
2022-11-26T11:37:36.823Z,10.72
2022-11-26T11:38:36.826Z,10.75
2022-11-26T11:39:36.802Z,10.81
2022-11-26T11:40:36.836Z,10.78
2022-11-26T11:41:36.775Z,10.76
2022-11-26T11:42:36.780Z,10.84
2022-11-26T11:43:36.749Z,10.87
2022-11-26T11:44:37.073Z,10.84
2022-11-26T11:45:36.805Z,10.89
2022-11-26T11:46:36.719Z,10.92
2022-11-26T11:47:36.713Z,10.87
2022-11-26T11:48:36.724Z,10.96
2022-11-26T11:49:36.699Z,10.96
2022-11-26T11:50:36.669Z,10.89
2022-11-26T11:51:36.722Z,10.92
2022-11-26T11:52:36.680Z,11.02
2022-11-26T11:53:36.640Z,10.94
2022-11-26T11:54:37.177Z,11.05
2022-11-26T11:55:36.615Z,11.11
2022-11-26T11:56:36.617Z,10.99
2022-11-26T11:57:36.584Z,11.04
2022-11-26T11:58:36.592Z,11.04
2022-11-26T11:59:36.566Z,11.11
2022-11-26T12:00:36.611Z,11.08
2022-11-26T12:01:36.616Z,10.99
2022-11-26T12:02:36.641Z,11.00
2022-11-26T12:03:36.520Z,10.94
2022-11-26T12:04:36.859Z,11.05
2022-11-26T12:05:36.562Z,10.97
2022-11-26T12:06:36.517Z,11.04
2022-11-26T12:07:36.727Z,10.97
2022-11-26T12:08:36.458Z,11.04
2022-11-26T12:09:36.456Z,11.04
2022-11-26T12:10:36.436Z,10.99
2022-11-26T12:11:36.455Z,11.04
2022-11-26T12:12:36.436Z,10.97
2022-11-26T12:13:36.423Z,10.94
2022-11-26T12:14:36.402Z,10.96
2022-11-26T12:15:36.380Z,11.02
2022-11-26T12:16:36.461Z,10.94
2022-11-26T12:17:36.580Z,10.84
2022-11-26T12:18:36.388Z,10.93
2022-11-26T12:19:36.347Z,10.92
2022-11-26T12:20:36.334Z,10.86
2022-11-26T12:21:36.323Z,10.86
2022-11-26T12:22:36.300Z,10.81
2022-11-26T12:23:36.291Z,10.81
2022-11-26T12:24:36.513Z,10.82
2022-11-26T12:25:37.269Z,10.84
2022-11-26T12:26:36.288Z,10.81
2022-11-26T12:27:36.249Z,10.79
2022-11-26T12:28:36.233Z,10.75
2022-11-26T12:29:36.226Z,10.75
2022-11-26T12:30:36.246Z,10.78
2022-11-26T12:31:36.251Z,10.75
2022-11-26T12:32:36.197Z,10.71
2022-11-26T12:33:36.229Z,10.64
2022-11-26T12:34:36.207Z,10.68
2022-11-26T12:35:36.160Z,10.67
2022-11-26T12:36:36.196Z,10.64
2022-11-26T12:37:36.138Z,10.56
2022-11-26T12:38:36.131Z,10.63
2022-11-26T12:39:36.139Z,10.63
2022-11-26T12:40:36.133Z,10.57
2022-11-26T12:41:36.089Z,10.64
2022-11-26T12:42:36.111Z,10.54
2022-11-26T12:43:36.107Z,10.51
2022-11-26T12:44:36.065Z,10.54
2022-11-26T12:45:36.123Z,10.54
2022-11-26T12:46:36.032Z,10.49
2022-11-26T12:47:36.044Z,10.51
2022-11-26T12:48:36.034Z,10.42
2022-11-26T12:49:36.020Z,10.54
2022-11-26T12:50:38.086Z,10.44
2022-11-26T12:51:35.985Z,10.48
2022-11-26T12:52:35.963Z,10.51
2022-11-26T12:53:35.960Z,10.41
2022-11-26T12:54:36.031Z,10.40
2022-11-26T12:55:35.933Z,10.37
2022-11-26T12:56:35.986Z,10.35
2022-11-26T12:57:35.908Z,10.34
2022-11-26T12:58:35.898Z,10.35
2022-11-26T12:59:35.885Z,10.25
2022-11-26T13:00:36.589Z,10.23
2022-11-26T13:01:35.920Z,10.23
2022-11-26T13:02:35.949Z,10.22
2022-11-26T13:03:35.833Z,10.19
2022-11-26T13:04:38.250Z,10.16
2022-11-26T13:05:35.841Z,10.19
2022-11-26T13:06:35.855Z,10.23
2022-11-26T13:07:35.868Z,10.22
2022-11-26T13:08:35.777Z,10.20
2022-11-26T13:09:35.779Z,10.16
2022-11-26T13:10:35.753Z,10.22
2022-11-26T13:11:35.771Z,10.07
2022-11-26T13:12:35.747Z,10.05
2022-11-26T13:13:35.722Z,10.02
2022-11-26T13:14:35.717Z,10.09